createdAt,value
2023-03-29T00:00:24.923Z,4.93
2023-03-29T00:02:52.289Z,3.33
2023-03-29T00:05:25.432Z,3.28
2023-03-29T00:07:54.265Z,3.77
2023-03-29T00:10:24.178Z,3.05
2023-03-29T00:12:52.710Z,2.80
2023-03-29T00:15:20.564Z,3.90
2023-03-29T00:17:47.541Z,3.60
2023-03-29T00:20:14.522Z,4.03
2023-03-29T00:22:42.475Z,3.40
2023-03-29T00:25:11.040Z,3.85
2023-03-29T00:27:38.217Z,4.35
2023-03-29T00:30:10.360Z,3.00
2023-03-29T00:32:38.327Z,3.78
2023-03-29T00:35:06.365Z,3.63
2023-03-29T00:37:33.686Z,4.72
2023-03-29T00:40:01.674Z,4.20
2023-03-29T00:42:28.641Z,3.47
2023-03-29T00:44:56.954Z,4.75
2023-03-29T00:47:47.816Z,11.20
2023-03-29T00:50:22.699Z,3.67
2023-03-29T00:52:56.694Z,3.03
2023-03-29T00:57:53.712Z,4.30
2023-03-29T01:00:27.405Z,3.17
2023-03-29T01:02:59.901Z,3.92
2023-03-29T01:05:32.097Z,4.45
2023-03-29T01:08:06.723Z,4.18
2023-03-29T01:10:37.421Z,6.28
2023-03-29T01:13:09.634Z,4.55
2023-03-29T01:15:39.087Z,4.25
2023-03-29T01:18:06.625Z,3.20
2023-03-29T01:20:46.775Z,3.65
2023-03-29T01:23:28.724Z,4.28
2023-03-29T01:26:10.655Z,4.97
2023-03-29T01:28:46.957Z,6.25
2023-03-29T01:31:25.713Z,4.82
2023-03-29T01:34:01.521Z,5.28
2023-03-29T01:36:37.239Z,4.00
2023-03-29T01:39:06.232Z,6.50
2023-03-29T01:41:44.058Z,4.05
2023-03-29T01:44:31.717Z,3.90
2023-03-29T01:47:28.761Z,3.92
2023-03-29T01:50:37.322Z,4.38
2023-03-29T01:53:10.811Z,4.90
2023-03-29T01:55:44.640Z,3.45
2023-03-29T01:58:14.138Z,3.65
2023-03-29T02:01:10.549Z,5.13
2023-03-29T02:03:42.572Z,3.75
2023-03-29T02:06:15.918Z,8.35
2023-03-29T02:08:43.746Z,3.55
2023-03-29T02:11:10.826Z,3.55
2023-03-29T02:13:37.912Z,3.60
2023-03-29T02:16:12.991Z,3.50
2023-03-29T02:18:43.327Z,4.13
2023-03-29T02:21:21.341Z,3.80
2023-03-29T02:23:50.101Z,4.25
2023-03-29T02:26:17.818Z,3.33
2023-03-29T02:28:44.760Z,4.00
2023-03-29T02:31:24.323Z,3.50
2023-03-29T02:34:10.584Z,2.90
2023-03-29T02:36:42.963Z,5.13
2023-03-29T02:39:15.671Z,3.83
2023-03-29T02:41:47.186Z,4.07
2023-03-29T02:44:19.174Z,4.57
2023-03-29T02:46:49.040Z,4.00
2023-03-29T02:49:16.421Z,4.05
2023-03-29T02:51:47.523Z,4.10
2023-03-29T02:54:19.547Z,5.82
2023-03-29T02:56:49.369Z,4.38
2023-03-29T03:01:46.382Z,5.40
2023-03-29T03:04:13.899Z,4.45
2023-03-29T03:06:41.082Z,4.78
2023-03-29T03:09:09.763Z,5.05
2023-03-29T03:11:37.790Z,6.00
2023-03-29T03:14:05.948Z,4.68
2023-03-29T03:16:32.988Z,3.45
2023-03-29T03:19:01.100Z,3.83
2023-03-29T03:21:28.342Z,4.65
2023-03-29T03:23:55.835Z,3.53
2023-03-29T03:26:24.927Z,3.97
2023-03-29T03:28:51.863Z,5.03
2023-03-29T03:31:19.705Z,4.68
2023-03-29T03:33:46.739Z,5.38
2023-03-29T03:36:14.088Z,4.40
2023-03-29T03:38:42.150Z,6.50
2023-03-29T03:41:09.195Z,3.63
2023-03-29T03:43:36.506Z,4.40
2023-03-29T03:46:03.514Z,3.35
2023-03-29T03:48:30.594Z,4.50
2023-03-29T03:50:59.147Z,3.60
2023-03-29T03:53:27.479Z,3.35
2023-03-29T03:55:58.982Z,3.58
2023-03-29T03:58:27.216Z,3.03
2023-03-29T04:00:55.016Z,3.50
2023-03-29T04:03:22.745Z,6.97
2023-03-29T04:05:50.111Z,2.95
2023-03-29T04:08:16.990Z,3.83
2023-03-29T04:10:56.315Z,6.15
2023-03-29T04:13:23.725Z,3.42
2023-03-29T04:15:54.442Z,4.03
2023-03-29T04:18:22.466Z,3.83
2023-03-29T04:20:53.042Z,2.67
2023-03-29T04:23:19.983Z,4.25
2023-03-29T04:25:47.736Z,4.28
2023-03-29T04:28:14.618Z,3.95
2023-03-29T04:30:41.489Z,4.35
2023-03-29T04:33:08.556Z,5.25
2023-03-29T04:35:35.583Z,4.55
2023-03-29T04:38:04.478Z,4.85
2023-03-29T04:40:31.851Z,3.75
2023-03-29T04:43:00.146Z,4.20
2023-03-29T04:45:27.411Z,7.97
2023-03-29T04:47:57.203Z,7.80
2023-03-29T04:50:24.097Z,4.88
2023-03-29T04:52:51.507Z,5.50
2023-03-29T04:55:18.429Z,5.82
2023-03-29T04:57:45.289Z,5.10
2023-03-29T05:00:15.747Z,4.35
2023-03-29T05:02:45.709Z,4.07
2023-03-29T05:05:13.453Z,5.72
2023-03-29T05:08:05.998Z,5.18
2023-03-29T05:10:32.917Z,5.30
2023-03-29T05:12:59.841Z,6.78
2023-03-29T05:15:26.860Z,6.20
2023-03-29T05:17:53.881Z,5.88
2023-03-29T05:20:22.067Z,7.45
2023-03-29T05:22:48.993Z,8.65
2023-03-29T05:25:19.658Z,6.13
2023-03-29T05:27:46.925Z,7.07
2023-03-29T05:30:15.483Z,8.88
2023-03-29T05:32:42.999Z,7.53
2023-03-29T05:35:11.420Z,7.32
2023-03-29T05:37:39.897Z,5.43
2023-03-29T05:40:10.486Z,5.68
2023-03-29T05:42:38.737Z,8.32
2023-03-29T05:45:06.546Z,6.57
2023-03-29T05:47:33.468Z,7.32
2023-03-29T05:50:00.475Z,8.18
2023-03-29T05:52:27.528Z,8.98
2023-03-29T05:54:54.444Z,11.48
2023-03-29T05:57:21.628Z,8.43
2023-03-29T05:59:48.548Z,14.10
2023-03-29T06:02:16.097Z,9.48
2023-03-29T06:04:43.258Z,9.00
2023-03-29T06:07:12.622Z,9.13
2023-03-29T06:09:39.940Z,7.93
2023-03-29T06:12:07.990Z,9.98
2023-03-29T06:14:36.634Z,10.63
2023-03-29T06:17:03.881Z,9.45
2023-03-29T06:19:42.578Z,11.30
2023-03-29T06:22:09.460Z,14.60
2023-03-29T06:24:36.570Z,13.75
2023-03-29T06:27:03.558Z,10.07
2023-03-29T06:29:30.402Z,12.15
2023-03-29T06:31:57.324Z,11.50
2023-03-29T06:34:24.325Z,12.05
2023-03-29T06:36:51.280Z,11.75
2023-03-29T06:39:18.270Z,13.02
2023-03-29T06:41:45.171Z,10.48
2023-03-29T06:44:12.591Z,10.40
2023-03-29T06:46:39.538Z,8.27
2023-03-29T06:49:06.557Z,7.05
2023-03-29T06:51:33.457Z,9.60
2023-03-29T06:54:00.344Z,7.53
2023-03-29T06:56:27.249Z,5.85
2023-03-29T06:58:54.104Z,7.68
2023-03-29T07:01:21.874Z,7.45
2023-03-29T07:03:49.853Z,7.43
2023-03-29T07:06:20.975Z,8.63
2023-03-29T07:08:52.075Z,7.63
2023-03-29T07:11:20.454Z,6.82
2023-03-29T07:13:49.263Z,6.05
2023-03-29T07:16:16.386Z,7.82
2023-03-29T07:18:44.374Z,6.53
2023-03-29T07:21:31.272Z,7.78
2023-03-29T07:23:58.392Z,7.65
2023-03-29T07:26:28.632Z,9.38
2023-03-29T07:28:58.856Z,9.60
2023-03-29T07:31:25.860Z,8.52
2023-03-29T07:33:53.612Z,8.00
2023-03-29T07:36:21.857Z,6.95
2023-03-29T07:38:48.801Z,9.18
2023-03-29T07:41:16.266Z,8.10
2023-03-29T07:43:43.213Z,11.60
2023-03-29T07:46:11.450Z,10.13
2023-03-29T07:48:38.382Z,8.70
2023-03-29T07:51:07.217Z,9.20
2023-03-29T07:53:34.297Z,10.15
2023-03-29T07:56:02.775Z,8.35
2023-03-29T07:58:30.590Z,9.60
2023-03-29T08:01:02.952Z,10.10
2023-03-29T08:03:30.055Z,8.50
2023-03-29T08:05:56.935Z,7.13
2023-03-29T08:08:26.670Z,9.68
2023-03-29T08:10:54.795Z,7.75
2023-03-29T08:13:22.083Z,9.95
2023-03-29T08:15:50.346Z,8.85
2023-03-29T08:18:17.641Z,10.82
2023-03-29T08:20:44.521Z,9.48
2023-03-29T08:23:11.497Z,8.32
2023-03-29T08:25:39.377Z,14.30
2023-03-29T08:28:06.498Z,13.02
2023-03-29T08:30:33.464Z,10.90
2023-03-29T08:33:02.278Z,9.20
2023-03-29T08:35:29.190Z,9.52
2023-03-29T08:37:57.581Z,7.53
2023-03-29T08:40:28.534Z,7.65
2023-03-29T08:43:02.070Z,11.00
2023-03-29T08:45:37.702Z,14.30
2023-03-29T08:48:23.394Z,9.63
2023-03-29T08:51:25.547Z,11.27
2023-03-29T08:54:04.456Z,8.13
2023-03-29T08:56:35.429Z,15.30
2023-03-29T08:59:03.474Z,15.13
2023-03-29T09:01:38.711Z,24.33
2023-03-29T09:04:17.183Z,18.83
2023-03-29T09:06:44.574Z,17.50
2023-03-29T09:09:23.396Z,13.40
2023-03-29T09:12:14.055Z,12.98
2023-03-29T09:15:01.939Z,13.65
2023-03-29T09:17:51.955Z,8.90
2023-03-29T09:20:37.492Z,23.38
2023-03-29T09:23:10.338Z,12.55
2023-03-29T09:26:03.617Z,15.23
2023-03-29T09:28:57.393Z,10.40
2023-03-29T09:31:39.288Z,13.50
2023-03-29T09:34:18.892Z,12.85
2023-03-29T09:36:53.576Z,9.18
2023-03-29T09:39:22.316Z,10.27
2023-03-29T09:42:01.822Z,8.77
2023-03-29T09:44:45.798Z,7.65
2023-03-29T09:47:21.221Z,6.80
2023-03-29T09:49:51.839Z,9.60
2023-03-29T09:52:21.352Z,11.30
2023-03-29T09:54:49.372Z,8.93
2023-03-29T09:57:22.170Z,5.35
2023-03-29T09:59:51.605Z,5.03
2023-03-29T10:02:21.180Z,5.80
2023-03-29T10:05:04.249Z,4.47
2023-03-29T10:07:45.676Z,5.22
2023-03-29T10:10:25.447Z,8.35
2023-03-29T10:17:00.227Z,7.53
2023-03-29T10:38:23.126Z,3.83
2023-03-29T10:40:52.792Z,3.85
2023-03-29T10:43:25.693Z,4.60
2023-03-29T10:45:55.918Z,5.10
2023-03-29T10:48:30.425Z,6.95
2023-03-29T10:51:06.147Z,3.70
2023-03-29T10:53:35.973Z,6.53
2023-03-29T10:56:24.908Z,7.57
2023-03-29T10:58:59.056Z,8.38
2023-03-29T11:01:49.061Z,5.50
2023-03-29T11:04:56.730Z,4.20
2023-03-29T11:07:32.925Z,5.35
2023-03-29T11:10:25.818Z,6.03
2023-03-29T11:13:13.480Z,7.47
2023-03-29T11:15:52.270Z,10.13
2023-03-29T11:18:35.490Z,4.55
2023-03-29T11:21:22.638Z,4.27
2023-03-29T11:24:17.163Z,4.32
2023-03-29T11:26:53.630Z,4.97
2023-03-29T11:29:27.189Z,3.47
2023-03-29T11:32:22.385Z,5.07
2023-03-29T11:35:09.276Z,6.05
2023-03-29T11:37:49.930Z,7.47
2023-03-29T11:40:44.982Z,5.05
2023-03-29T11:43:30.629Z,5.93
2023-03-29T11:46:20.749Z,6.32
2023-03-29T11:48:59.626Z,6.07
2023-03-29T11:51:32.282Z,9.70
2023-03-29T11:54:01.889Z,8.13
2023-03-29T11:56:51.501Z,9.68
2023-03-29T12:00:00.173Z,8.15
2023-03-29T12:02:48.685Z,5.85
2023-03-29T12:05:27.834Z,6.88
2023-03-29T12:08:01.560Z,5.95
2023-03-29T12:10:40.666Z,6.13
2023-03-29T12:13:33.205Z,8.07
2023-03-29T12:16:26.575Z,6.13
2023-03-29T12:18:57.142Z,7.45
2023-03-29T12:21:28.049Z,7.65
2023-03-29T12:23:55.428Z,5.55
2023-03-29T12:26:53.420Z,8.40
2023-03-29T12:29:27.486Z,4.80
2023-03-29T12:32:12.798Z,8.85
2023-03-29T12:35:00.820Z,4.80
2023-03-29T12:37:28.696Z,5.47
2023-03-29T12:40:06.339Z,5.53
2023-03-29T12:42:33.318Z,5.60
2023-03-29T12:45:01.652Z,9.35
2023-03-29T12:47:38.216Z,4.72
2023-03-29T12:50:38.914Z,6.07
2023-03-29T12:53:19.179Z,7.25
2023-03-29T12:56:01.840Z,6.68
2023-03-29T12:59:18.137Z,6.47
2023-03-29T13:02:15.456Z,9.25
2023-03-29T13:04:55.650Z,5.80
2023-03-29T13:07:22.765Z,7.22
2023-03-29T13:09:53.033Z,10.38
2023-03-29T13:12:34.514Z,8.63
2023-03-29T13:15:05.471Z,10.95
2023-03-29T13:17:55.558Z,8.43
2023-03-29T13:20:51.031Z,6.72
2023-03-29T13:23:36.475Z,5.10
2023-03-29T13:26:29.907Z,9.95
2023-03-29T13:29:13.253Z,9.53
2023-03-29T13:42:51.437Z,5.20
2023-03-29T13:45:56.151Z,5.72
2023-03-29T14:07:09.322Z,9.63
2023-03-29T14:10:50.957Z,4.95
2023-03-29T15:25:41.230Z,6.50
2023-03-29T15:28:26.539Z,6.07
2023-03-29T15:31:07.657Z,6.55
2023-03-29T15:33:40.543Z,5.22
2023-03-29T15:36:09.870Z,7.68
2023-03-29T15:38:44.085Z,5.10
2023-03-29T15:41:13.661Z,6.90
2023-03-29T15:43:41.463Z,6.03
2023-03-29T15:46:10.936Z,8.32
2023-03-29T15:48:37.895Z,8.10
2023-03-29T15:51:06.932Z,7.00
2023-03-29T15:53:35.223Z,7.50
2023-03-29T15:56:05.541Z,5.32
2023-03-29T15:58:34.519Z,6.75
2023-03-29T16:01:23.571Z,8.05
2023-03-29T16:03:51.047Z,8.18
2023-03-29T16:06:18.483Z,8.43
2023-03-29T16:08:46.156Z,7.95
2023-03-29T16:11:13.926Z,8.48
2023-03-29T16:13:40.907Z,7.82
2023-03-29T16:16:12.440Z,7.43
2023-03-29T16:18:39.342Z,6.85
2023-03-29T16:21:06.674Z,6.13
2023-03-29T16:23:33.536Z,8.05
2023-03-29T16:26:00.511Z,5.85
2023-03-29T16:28:28.302Z,10.07
2023-03-29T16:30:55.191Z,5.55
2023-03-29T16:33:22.096Z,6.85
2023-03-29T16:35:49.107Z,6.15
2023-03-29T16:38:16.008Z,7.75
2023-03-29T16:40:43.830Z,8.35
2023-03-29T16:43:18.713Z,6.63
2023-03-29T16:45:46.008Z,8.48
2023-03-29T16:48:21.830Z,8.18
2023-03-29T16:50:49.547Z,8.13
2023-03-29T16:53:18.357Z,8.43
2023-03-29T16:55:48.326Z,9.65
2023-03-29T16:58:16.280Z,6.10
2023-03-29T17:00:46.365Z,8.27
2023-03-29T17:03:15.478Z,7.93
2023-03-29T17:05:50.312Z,9.40
2023-03-29T17:08:18.024Z,7.38
2023-03-29T17:10:45.582Z,7.13
2023-03-29T17:13:13.159Z,9.43
2023-03-29T17:15:40.285Z,10.35
2023-03-29T17:18:07.416Z,8.02
2023-03-29T17:20:34.354Z,8.50
2023-03-29T17:23:01.341Z,7.63
2023-03-29T17:25:28.207Z,8.48
2023-03-29T17:27:55.108Z,8.15
2023-03-29T17:30:22.050Z,5.22
2023-03-29T17:32:49.325Z,8.00
2023-03-29T17:35:16.327Z,6.70
2023-03-29T17:37:43.326Z,7.45
2023-03-29T17:40:13.816Z,9.13
2023-03-29T17:42:41.776Z,6.82
2023-03-29T17:45:10.597Z,7.22
2023-03-29T17:47:38.781Z,12.38
2023-03-29T17:50:07.362Z,5.55
2023-03-29T17:52:34.565Z,8.95
2023-03-29T17:55:01.701Z,10.82
2023-03-29T17:57:28.696Z,7.93
2023-03-29T17:59:55.578Z,10.63
2023-03-29T18:02:24.484Z,13.00
2023-03-29T18:04:51.840Z,9.05
2023-03-29T18:07:18.947Z,8.25
2023-03-29T18:09:46.244Z,12.63
2023-03-29T18:12:13.122Z,7.65
2023-03-29T18:14:40.005Z,11.55
2023-03-29T18:17:06.904Z,8.50
2023-03-29T18:19:33.974Z,5.35
2023-03-29T18:22:00.997Z,10.20
2023-03-29T18:24:27.921Z,9.65
2023-03-29T18:26:54.862Z,9.13
2023-03-29T18:29:21.894Z,7.07
2023-03-29T18:31:48.824Z,4.75
2023-03-29T18:34:16.049Z,9.27
2023-03-29T18:36:43.066Z,8.85
2023-03-29T18:39:09.925Z,8.35
2023-03-29T18:41:37.445Z,10.65
2023-03-29T18:44:04.541Z,8.40
2023-03-29T18:46:31.980Z,9.05
2023-03-29T18:49:00.498Z,7.13
2023-03-29T18:51:31.137Z,6.25
2023-03-29T18:53:58.063Z,7.03
2023-03-29T18:56:25.094Z,9.02
2023-03-29T18:58:52.385Z,9.65
2023-03-29T19:01:19.351Z,8.90
2023-03-29T19:03:47.077Z,6.25
2023-03-29T19:06:15.245Z,10.07
2023-03-29T19:08:42.315Z,6.57
2023-03-29T19:11:14.230Z,9.80
2023-03-29T19:13:41.992Z,10.68
2023-03-29T19:16:09.151Z,9.95
2023-03-29T19:18:36.753Z,10.20
2023-03-29T19:21:03.883Z,7.57
2023-03-29T19:23:30.774Z,8.35
2023-03-29T19:26:00.323Z,6.70
2023-03-29T19:28:27.984Z,8.50
2023-03-29T19:30:56.353Z,9.70
2023-03-29T19:33:23.436Z,8.23
2023-03-29T19:35:51.819Z,7.95
2023-03-29T19:38:19.409Z,9.65
2023-03-29T19:40:48.144Z,8.15
2023-03-29T19:43:16.771Z,6.97
2023-03-29T19:45:44.592Z,8.15
2023-03-29T19:48:21.155Z,7.05
2023-03-29T19:50:49.054Z,6.68
2023-03-29T19:53:16.028Z,11.05
2023-03-29T19:55:45.297Z,7.63
2023-03-29T19:58:13.212Z,9.02
2023-03-29T20:00:41.929Z,9.52
2023-03-29T20:03:13.983Z,10.20
2023-03-29T20:05:41.195Z,9.45
2023-03-29T20:08:08.562Z,6.93
2023-03-29T20:10:36.418Z,7.72
2023-03-29T20:13:03.644Z,10.68
2023-03-29T20:15:30.561Z,7.43
2023-03-29T20:17:59.689Z,8.73
2023-03-29T20:20:27.338Z,9.32
2023-03-29T20:23:04.583Z,7.82
2023-03-29T20:25:33.051Z,10.63
2023-03-29T20:28:00.306Z,8.48
2023-03-29T20:30:27.284Z,7.72
2023-03-29T20:32:54.202Z,8.02
2023-03-29T20:35:21.214Z,7.70
2023-03-29T20:37:48.147Z,8.07
2023-03-29T20:40:15.827Z,9.18
2023-03-29T20:42:43.005Z,9.50
2023-03-29T20:45:18.356Z,8.85
2023-03-29T20:47:57.590Z,12.30
2023-03-29T20:50:26.406Z,9.27
2023-03-29T20:52:57.135Z,7.00
2023-03-29T20:55:24.650Z,7.38
2023-03-29T20:57:58.271Z,11.48
2023-03-29T21:00:27.280Z,6.28
2023-03-29T21:03:01.188Z,7.90
2023-03-29T21:05:29.248Z,8.27
2023-03-29T21:07:57.011Z,9.73
2023-03-29T21:10:25.590Z,7.13
2023-03-29T21:12:54.367Z,9.80
2023-03-29T21:15:21.271Z,7.75
2023-03-29T21:17:48.201Z,9.10
2023-03-29T21:20:15.644Z,9.63
2023-03-29T21:22:45.334Z,8.38
2023-03-29T21:25:15.653Z,9.05
2023-03-29T21:27:43.005Z,12.88
2023-03-29T21:30:10.958Z,8.10
2023-03-29T21:32:38.176Z,8.40
2023-03-29T21:35:05.984Z,10.75
2023-03-29T21:37:33.243Z,8.13
2023-03-29T21:40:00.405Z,9.13
2023-03-29T21:42:27.243Z,15.63
2023-03-29T21:44:54.081Z,7.35
2023-03-29T21:47:20.993Z,8.35
2023-03-29T21:49:47.832Z,9.82
2023-03-29T21:52:14.675Z,7.75
2023-03-29T21:54:41.585Z,9.50
2023-03-29T21:57:08.685Z,10.45
2023-03-29T21:59:35.771Z,10.90
2023-03-29T22:02:02.701Z,9.65
2023-03-29T22:04:37.030Z,9.98
2023-03-29T22:07:05.951Z,9.90
2023-03-29T22:09:35.204Z,9.43
2023-03-29T22:12:03.007Z,6.25
2023-03-29T22:14:34.774Z,8.85
2023-03-29T22:17:02.867Z,7.75
2023-03-29T22:19:29.735Z,11.15
2023-03-29T22:22:01.570Z,8.15
2023-03-29T22:24:29.342Z,12.10
2023-03-29T22:26:56.413Z,9.48
2023-03-29T22:29:23.314Z,13.15
2023-03-29T22:31:50.380Z,9.50
2023-03-29T22:34:17.402Z,9.95
2023-03-29T22:36:44.321Z,9.50
2023-03-29T22:39:12.070Z,6.72
2023-03-29T22:41:39.190Z,10.85
2023-03-29T22:44:06.394Z,7.22
2023-03-29T22:46:33.336Z,9.57
2023-03-29T22:49:00.291Z,6.70
2023-03-29T22:51:27.464Z,8.77
2023-03-29T22:53:54.425Z,7.72
2023-03-29T22:56:21.957Z,8.73
2023-03-29T22:58:49.175Z,9.65
2023-03-29T23:01:16.119Z,9.25
2023-03-29T23:03:43.088Z,7.65
2023-03-29T23:06:10.118Z,8.43
2023-03-29T23:08:37.243Z,7.10
2023-03-29T23:11:04.926Z,10.13
2023-03-29T23:13:33.590Z,8.52
2023-03-29T23:16:02.232Z,9.45
2023-03-29T23:18:30.372Z,9.30
2023-03-29T23:20:59.022Z,6.75
2023-03-29T23:23:27.104Z,8.57
2023-03-29T23:25:55.675Z,10.55
2023-03-29T23:28:26.102Z,8.05
2023-03-29T23:31:04.732Z,9.25
2023-03-29T23:33:35.444Z,9.10
2023-03-29T23:36:04.535Z,8.27
2023-03-29T23:38:36.108Z,6.20
2023-03-29T23:41:06.133Z,12.63
2023-03-29T23:43:35.131Z,6.38
2023-03-29T23:46:05.260Z,10.38
2023-03-29T23:48:32.662Z,8.98
2023-03-29T23:50:59.955Z,9.07
2023-03-29T23:53:29.129Z,8.15
2023-03-29T23:56:01.449Z,7.53
2023-03-29T23:58:33.419Z,7.10
